sensor_id;sensor_type;location;lat;lon;timestamp;pressure;altitude;pressure_sealevel;temperature;humidity
10510;BME280;5303;53.266;10.410;2023-02-11T00:01:35;102611.09;;;7.94;100.00
10510;BME280;5303;53.266;10.410;2023-02-11T00:04:02;102608.31;;;7.83;100.00
10510;BME280;5303;53.266;10.410;2023-02-11T00:06:28;102617.19;;;7.85;100.00
10510;BME280;5303;53.266;10.410;2023-02-11T00:08:55;102619.66;;;8.01;100.00
10510;BME280;5303;53.266;10.410;2023-02-11T00:11:22;102609.56;;;8.03;100.00
10510;BME280;5303;53.266;10.410;2023-02-11T00:13:49;102604.13;;;8.03;100.00
10510;BME280;5303;53.266;10.410;2023-02-11T00:16:17;102601.50;;;8.02;100.00
10510;BME280;5303;53.266;10.410;2023-02-11T00:18:43;102605.22;;;8.01;100.00
10510;BME280;5303;53.266;10.410;2023-02-11T00:21:12;102604.66;;;7.96;100.00
10510;BME280;5303;53.266;10.410;2023-02-11T00:23:38;102598.72;;;7.90;100.00
10510;BME280;5303;53.266;10.410;2023-02-11T00:26:10;102612.13;;;8.05;100.00
10510;BME280;5303;53.266;10.410;2023-02-11T00:28:36;102608.22;;;8.09;100.00
10510;BME280;5303;53.266;10.410;2023-02-11T00:31:01;102609.34;;;8.06;100.00
10510;BME280;5303;53.266;10.410;2023-02-11T00:33:26;102624.28;;;8.12;100.00
10510;BME280;5303;53.266;10.410;2023-02-11T00:35:52;102635.31;;;8.22;100.00
10510;BME280;5303;53.266;10.410;2023-02-11T00:38:17;102616.63;;;8.30;100.00
10510;BME280;5303;53.266;10.410;2023-02-11T00:40:43;102616.97;;;8.25;100.00
10510;BME280;5303;53.266;10.410;2023-02-11T00:43:08;102622.88;;;8.19;100.00
10510;BME280;5303;53.266;10.410;2023-02-11T00:45:33;102614.25;;;8.38;100.00
10510;BME280;5303;53.266;10.410;2023-02-11T00:47:58;102604.25;;;8.26;100.00
10510;BME280;5303;53.266;10.410;2023-02-11T00:50:24;102600.03;;;8.22;100.00
10510;BME280;5303;53.266;10.410;2023-02-11T00:52:49;102600.88;;;8.35;100.00
10510;BME280;5303;53.266;10.410;2023-02-11T00:55:15;102594.78;;;8.31;100.00
10510;BME280;5303;53.266;10.410;2023-02-11T00:57:41;102594.78;;;8.31;100.00
10510;BME280;5303;53.266;10.410;2023-02-11T01:00:08;102599.06;;;8.23;100.00
10510;BME280;5303;53.266;10.410;2023-02-11T01:02:33;102588.88;;;8.13;100.00
10510;BME280;5303;53.266;10.410;2023-02-11T01:04:59;102585.81;;;8.18;100.00
10510;BME280;5303;53.266;10.410;2023-02-11T01:07:26;102584.56;;;8.11;100.00
10510;BME280;5303;53.266;10.410;2023-02-11T01:09:51;102573.69;;;8.11;100.00
10510;BME280;5303;53.266;10.410;2023-02-11T01:12:16;102574.63;;;8.23;100.00
10510;BME280;5303;53.266;10.410;2023-02-11T01:14:42;102567.88;;;8.28;100.00
10510;BME280;5303;53.266;10.410;2023-02-11T01:17:08;102567.44;;;8.22;100.00
10510;BME280;5303;53.266;10.410;2023-02-11T01:19:33;102568.38;;;8.33;100.00
10510;BME280;5303;53.266;10.410;2023-02-11T01:22:00;102561.50;;;8.16;100.00
10510;BME280;5303;53.266;10.410;2023-02-11T01:24:25;102561.28;;;8.20;100.00
10510;BME280;5303;53.266;10.410;2023-02-11T01:26:50;102555.31;;;8.14;100.00
10510;BME280;5303;53.266;10.410;2023-02-11T01:29:16;102554.88;;;8.21;100.00
10510;BME280;5303;53.266;10.410;2023-02-11T01:31:41;102546.09;;;8.17;100.00
10510;BME280;5303;53.266;10.410;2023-02-11T01:34:06;102548.75;;;8.06;100.00
10510;BME280;5303;53.266;10.410;2023-02-11T01:36:32;102539.28;;;8.11;100.00
10510;BME280;5303;53.266;10.410;2023-02-11T01:38:57;102531.94;;;8.01;100.00
10510;BME280;5303;53.266;10.410;2023-02-11T01:41:22;102525.16;;;7.82;100.00
10510;BME280;5303;53.266;10.410;2023-02-11T01:43:49;102512.22;;;7.86;100.00
10510;BME280;5303;53.266;10.410;2023-02-11T01:48:58;102523.41;;;7.94;100.00
10510;BME280;5303;53.266;10.410;2023-02-11T01:51:30;102521.00;;;7.89;100.00
10510;BME280;5303;53.266;10.410;2023-02-11T01:53:57;102526.91;;;8.07;100.00
10510;BME280;5303;53.266;10.410;2023-02-11T01:56:45;102533.63;;;8.14;100.00
10510;BME280;5303;53.266;10.410;2023-02-11T01:59:32;102537.53;;;8.10;100.00
10510;BME280;5303;53.266;10.410;2023-02-11T02:02:03;102540.88;;;8.14;100.00
10510;BME280;5303;53.266;10.410;2023-02-11T02:04:33;102541.28;;;8.21;100.00
10510;BME280;5303;53.266;10.410;2023-02-11T02:07:10;102531.81;;;8.26;100.00
10510;BME280;5303;53.266;10.410;2023-02-11T02:09:43;102527.78;;;8.32;100.00
10510;BME280;5303;53.266;10.410;2023-02-11T02:12:10;102523.47;;;8.29;100.00
10510;BME280;5303;53.266;10.410;2023-02-11T02:14:39;102509.13;;;8.27;100.00
10510;BME280;5303;53.266;10.410;2023-02-11T02:17:06;102519.41;;;8.11;100.00
10510;BME280;5303;53.266;10.410;2023-02-11T02:19:47;102519.34;;;8.24;100.00
10510;BME280;5303;53.266;10.410;2023-02-11T02:22:38;102513.41;;;8.19;100.00
10510;BME280;5303;53.266;10.410;2023-02-11T02:25:40;102526.16;;;8.05;100.00
10510;BME280;5303;53.266;10.410;2023-02-11T02:34:12;102520.81;;;8.16;100.00
10510;BME280;5303;53.266;10.410;2023-02-11T02:36:48;102515.31;;;8.29;100.00
10510;BME280;5303;53.266;10.410;2023-02-11T02:39:23;102508.72;;;8.21;100.00
10510;BME280;5303;53.266;10.410;2023-02-11T02:41:52;102511.78;;;8.16;100.00
10510;BME280;5303;53.266;10.410;2023-02-11T02:44:19;102509.41;;;8.11;100.00
10510;BME280;5303;53.266;10.410;2023-02-11T02:46:44;102517.28;;;8.03;100.00
10510;BME280;5303;53.266;10.410;2023-02-11T02:49:12;102503.44;;;8.19;100.00
10510;BME280;5303;53.266;10.410;2023-02-11T02:52:15;102497.44;;;8.03;100.00
10510;BME280;5303;53.266;10.410;2023-02-11T02:55:07;102500.25;;;8.01;100.00
10510;BME280;5303;53.266;10.410;2023-02-11T03:06:32;102476.63;;;8.14;100.00
10510;BME280;5303;53.266;10.410;2023-02-11T03:09:06;102475.22;;;8.09;100.00
10510;BME280;5303;53.266;10.410;2023-02-11T03:11:34;102479.44;;;7.89;100.00
10510;BME280;5303;53.266;10.410;2023-02-11T03:14:02;102473.03;;;8.14;100.00
10510;BME280;5303;53.266;10.410;2023-02-11T03:16:29;102480.72;;;8.20;100.00
10510;BME280;5303;53.266;10.410;2023-02-11T03:19:07;102481.16;;;8.03;100.00
10510;BME280;5303;53.266;10.410;2023-02-11T03:21:37;102495.41;;;7.93;100.00
10510;BME280;5303;53.266;10.410;2023-02-11T03:24:07;102487.94;;;8.08;100.00
10510;BME280;5303;53.266;10.410;2023-02-11T03:26:37;102483.50;;;8.07;100.00
10510;BME280;5303;53.266;10.410;2023-02-11T03:29:30;102478.38;;;8.15;100.00
10510;BME280;5303;53.266;10.410;2023-02-11T03:32:14;102474.06;;;8.24;100.00
10510;BME280;5303;53.266;10.410;2023-02-11T03:37:27;102482.38;;;8.34;100.00
10510;BME280;5303;53.266;10.410;2023-02-11T03:39:58;102474.94;;;8.49;100.00
10510;BME280;5303;53.266;10.410;2023-02-11T03:42:27;102475.22;;;8.33;100.00
10510;BME280;5303;53.266;10.410;2023-02-11T03:44:59;102473.06;;;8.38;100.00
10510;BME280;5303;53.266;10.410;2023-02-11T03:47:29;102467.63;;;8.38;100.00
10510;BME280;5303;53.266;10.410;2023-02-11T03:49:58;102465.28;;;8.45;100.00
10510;BME280;5303;53.266;10.410;2023-02-11T03:52:25;102465.41;;;8.43;100.00
10510;BME280;5303;53.266;10.410;2023-02-11T03:54:54;102458.97;;;8.44;100.00
10510;BME280;5303;53.266;10.410;2023-02-11T03:57:21;102452.63;;;8.32;100.00
10510;BME280;5303;53.266;10.410;2023-02-11T03:59:54;102449.97;;;8.44;100.00
10510;BME280;5303;53.266;10.410;2023-02-11T04:02:22;102456.91;;;8.48;100.00
10510;BME280;5303;53.266;10.410;2023-02-11T04:04:48;102464.31;;;8.57;100.00
10510;BME280;5303;53.266;10.410;2023-02-11T04:07:13;102458.31;;;8.65;100.00
10510;BME280;5303;53.266;10.410;2023-02-11T04:09:39;102449.06;;;8.67;100.00
10510;BME280;5303;53.266;10.410;2023-02-11T04:12:04;102447.91;;;8.70;100.00
10510;BME280;5303;53.266;10.410;2023-02-11T04:14:29;102443.00;;;8.75;100.00
10510;BME280;5303;53.266;10.410;2023-02-11T04:16:55;102437.28;;;8.55;100.00
10510;BME280;5303;53.266;10.410;2023-02-11T04:19:20;102442.25;;;8.61;100.00
10510;BME280;5303;53.266;10.410;2023-02-11T04:21:46;102446.38;;;8.90;100.00
10510;BME280;5303;53.266;10.410;2023-02-11T04:24:11;102455.44;;;8.66;100.00
10510;BME280;5303;53.266;10.410;2023-02-11T04:26:36;102451.09;;;8.52;100.00
10510;BME280;5303;53.266;10.410;2023-02-11T04:29:01;102464.06;;;8.60;100.00
10510;BME280;5303;53.266;10.410;2023-02-11T04:31:27;102462.25;;;8.72;100.00
10510;BME280;5303;53.266;10.410;2023-02-11T04:33:52;102468.63;;;8.48;100.00
10510;BME280;5303;53.266;10.410;2023-02-11T04:36:17;102470.88;;;8.54;100.00
10510;BME280;5303;53.266;10.410;2023-02-11T04:38:43;102482.09;;;8.50;100.00
10510;BME280;5303;53.266;10.410;2023-02-11T04:41:08;102477.28;;;8.53;100.00
10510;BME280;5303;53.266;10.410;2023-02-11T04:43:33;102479.91;;;8.66;100.00
10510;BME280;5303;53.266;10.410;2023-02-11T04:45:59;102471.16;;;8.74;100.00
10510;BME280;5303;53.266;10.410;2023-02-11T04:48:25;102459.69;;;8.70;100.00
10510;BME280;5303;53.266;10.410;2023-02-11T04:50:50;102450.03;;;8.89;100.00
10510;BME280;5303;53.266;10.410;2023-02-11T04:53:15;102461.16;;;8.74;100.00
10510;BME280;5303;53.266;10.410;2023-02-11T04:55:41;102462.75;;;8.66;100.00
10510;BME280;5303;53.266;10.410;2023-02-11T04:58:06;102454.72;;;8.64;100.00
10510;BME280;5303;53.266;10.410;2023-02-11T05:00:31;102466.06;;;8.58;100.00
10510;BME280;5303;53.266;10.410;2023-02-11T05:02:56;102468.53;;;8.61;100.00
10510;BME280;5303;53.266;10.410;2023-02-11T05:05:22;102452.63;;;8.79;100.00
10510;BME280;5303;53.266;10.410;2023-02-11T05:07:47;102459.69;;;9.04;100.00
10510;BME280;5303;53.266;10.410;2023-02-11T05:10:13;102448.31;;;8.99;100.00
10510;BME280;5303;53.266;10.410;2023-02-11T05:12:38;102447.47;;;8.98;100.00
10510;BME280;5303;53.266;10.410;2023-02-11T05:15:04;102445.63;;;9.10;100.00
10510;BME280;5303;53.266;10.410;2023-02-11T05:17:29;102447.34;;;8.77;100.00
10510;BME280;5303;53.266;10.410;2023-02-11T05:19:54;102451.00;;;8.76;100.00
10510;BME280;5303;53.266;10.410;2023-02-11T05:22:20;102449.44;;;8.74;100.00
10510;BME280;5303;53.266;10.410;2023-02-11T05:24:46;102441.19;;;8.86;100.00
10510;BME280;5303;53.266;10.410;2023-02-11T05:27:11;102435.59;;;8.77;100.00
10510;BME280;5303;53.266;10.410;2023-02-11T05:29:36;102438.31;;;8.88;100.00
10510;BME280;5303;53.266;10.410;2023-02-11T05:32:02;102445.09;;;8.82;100.00
10510;BME280;5303;53.266;10.410;2023-02-11T05:34:27;102449.94;;;8.90;100.00
10510;BME280;5303;53.266;10.410;2023-02-11T05:36:52;102434.34;;;8.92;100.00
10510;BME280;5303;53.266;10.410;2023-02-11T05:39:18;102447.34;;;8.77;100.00
10510;BME280;5303;53.266;10.410;2023-02-11T05:41:43;102434.13;;;8.95;100.00
10510;BME280;5303;53.266;10.410;2023-02-11T05:44:08;102423.72;;;9.12;100.00
10510;BME280;5303;53.266;10.410;2023-02-11T05:46:34;102440.03;;;8.89;100.00
10510;BME280;5303;53.266;10.410;2023-02-11T05:48:59;102417.81;;;8.95;100.00
10510;BME280;5303;53.266;10.410;2023-02-11T05:51:25;102430.03;;;9.01;100.00
10510;BME280;5303;53.266;10.410;2023-02-11T05:53:50;102427.97;;;8.93;100.00
10510;BME280;5303;53.266;10.410;2023-02-11T05:56:15;102424.84;;;8.98;100.00
10510;BME280;5303;53.266;10.410;2023-02-11T05:58:41;102425.09;;;9.28;100.00
10510;BME280;5303;53.266;10.410;2023-02-11T06:01:06;102422.50;;;9.27;100.00
10510;BME280;5303;53.266;10.410;2023-02-11T06:03:31;102427.47;;;9.22;100.00
10510;BME280;5303;53.266;10.410;2023-02-11T06:05:56;102433.75;;;9.22;100.00
10510;BME280;5303;53.266;10.410;2023-02-11T06:08:22;102416.47;;;9.12;100.00
10510;BME280;5303;53.266;10.410;2023-02-11T06:10:47;102422.50;;;9.04;100.00
10510;BME280;5303;53.266;10.410;2023-02-11T06:13:12;102416.06;;;9.39;100.00
10510;BME280;5303;53.266;10.410;2023-02-11T06:15:38;102397.81;;;9.19;100.00
10510;BME280;5303;53.266;10.410;2023-02-11T06:18:03;102402.59;;;9.38;100.00
10510;BME280;5303;53.266;10.410;2023-02-11T06:20:29;102415.09;;;9.06;100.00
10510;BME280;5303;53.266;10.410;2023-02-11T06:22:54;102416.47;;;9.01;100.00
10510;BME280;5303;53.266;10.410;2023-02-11T06:25:19;102410.78;;;9.04;100.00
10510;BME280;5303;53.266;10.410;2023-02-11T06:27:44;102410.66;;;8.94;100.00
10510;BME280;5303;53.266;10.410;2023-02-11T06:30:11;102403.41;;;9.49;100.00
10510;BME280;5303;53.266;10.410;2023-02-11T06:32:37;102414.38;;;9.70;100.00
10510;BME280;5303;53.266;10.410;2023-02-11T06:35:02;102410.81;;;9.59;100.00
10510;BME280;5303;53.266;10.410;2023-02-11T06:37:28;102410.09;;;9.45;100.00
10510;BME280;5303;53.266;10.410;2023-02-11T06:39:53;102407.63;;;9.53;100.00
10510;BME280;5303;53.266;10.410;2023-02-11T06:42:18;102408.44;;;9.22;100.00
10510;BME280;5303;53.266;10.410;2023-02-11T06:44:43;102410.53;;;9.18;100.00
10510;BME280;5303;53.266;10.410;2023-02-11T06:47:09;102411.97;;;9.33;100.00
10510;BME280;5303;53.266;10.410;2023-02-11T06:49:34;102417.91;;;9.39;100.00
10510;BME280;5303;53.266;10.410;2023-02-11T06:52:00;102423.81;;;9.55;100.00
10510;BME280;5303;53.266;10.410;2023-02-11T06:54:25;102421.69;;;9.59;100.00
10510;BME280;5303;53.266;10.410;2023-02-11T06:56:51;102422.59;;;9.37;100.00
10510;BME280;5303;53.266;10.410;2023-02-11T06:59:17;102417.66;;;9.30;100.00
10510;BME280;5303;53.266;10.410;2023-02-11T07:01:45;102416.13;;;9.60;100.00
10510;BME280;5303;53.266;10.410;2023-02-11T07:04:10;102406.13;;;9.61;100.00
10510;BME280;5303;53.266;10.410;2023-02-11T07:06:36;102410.09;;;9.45;100.00
10510;BME280;5303;53.266;10.410;2023-02-11T07:09:02;102409.34;;;9.54;100.00
10510;BME280;5303;53.266;10.410;2023-02-11T07:11:28;102416.84;;;9.62;100.00
10510;BME280;5303;53.266;10.410;2023-02-11T07:14:00;102428.75;;;9.61;100.00
10510;BME280;5303;53.266;10.410;2023-02-11T07:16:25;102436.41;;;9.67;100.00
10510;BME280;5303;53.266;10.410;2023-02-11T07:18:51;102425.28;;;9.59;100.00
10510;BME280;5303;53.266;10.410;2023-02-11T07:21:18;102438.97;;;9.69;100.00
10510;BME280;5303;53.266;10.410;2023-02-11T07:23:44;102450.84;;;9.68;100.00
10510;BME280;5303;53.266;10.410;2023-02-11T07:26:12;102449.66;;;9.61;100.00
10510;BME280;5303;53.266;10.410;2023-02-11T07:28:38;102441.47;;;9.61;100.00
10510;BME280;5303;53.266;10.410;2023-02-11T07:31:13;102445.91;;;9.62;100.00
10510;BME280;5303;53.266;10.410;2023-02-11T07:33:39;102452.47;;;9.59;100.00
10510;BME280;5303;53.266;10.410;2023-02-11T07:36:06;102453.44;;;9.69;100.00
10510;BME280;5303;53.266;10.410;2023-02-11T07:38:32;102455.69;;;9.64;100.00
10510;BME280;5303;53.266;10.410;2023-02-11T07:40:59;102454.94;;;9.62;100.00
10510;BME280;5303;53.266;10.410;2023-02-11T07:43:25;102460.50;;;9.72;100.00
10510;BME280;5303;53.266;10.410;2023-02-11T07:45:50;102461.94;;;9.87;100.00
10510;BME280;5303;53.266;10.410;2023-02-11T07:48:15;102460.59;;;9.82;100.00
10510;BME280;5303;53.266;10.410;2023-02-11T07:50:41;102455.53;;;9.77;100.00
10510;BME280;5303;53.266;10.410;2023-02-11T07:53:06;102455.81;;;9.63;100.00
10510;BME280;5303;53.266;10.410;2023-02-11T07:55:32;102458.06;;;9.46;100.00
10510;BME280;5303;53.266;10.410;2023-02-11T07:57:57;102472.91;;;9.53;100.00
10510;BME280;5303;53.266;10.410;2023-02-11T08:00:23;102472.03;;;9.64;100.00
10510;BME280;5303;53.266;10.410;2023-02-11T08:02:48;102475.00;;;9.61;100.00
10510;BME280;5303;53.266;10.410;2023-02-11T08:05:13;102473.13;;;9.62;100.00
10510;BME280;5303;53.266;10.410;2023-02-11T08:07:38;102473.88;;;9.64;100.00
10510;BME280;5303;53.266;10.410;2023-02-11T08:10:04;102480.31;;;9.51;100.00
10510;BME280;5303;53.266;10.410;2023-02-11T08:12:29;102486.66;;;9.41;100.00
10510;BME280;5303;53.266;10.410;2023-02-11T08:14:55;102496.50;;;9.53;100.00
10510;BME280;5303;53.266;10.410;2023-02-11T08:17:20;102494.31;;;9.36;100.00
10510;BME280;5303;53.266;10.410;2023-02-11T08:19:45;102487.50;;;9.41;100.00
10510;BME280;5303;53.266;10.410;2023-02-11T08:22:11;102492.19;;;9.62;100.00
10510;BME280;5303;53.266;10.410;2023-02-11T08:24:36;102480.78;;;9.68;100.00
10510;BME280;5303;53.266;10.410;2023-02-11T08:27:02;102489.84;;;9.57;100.00
10510;BME280;5303;53.266;10.410;2023-02-11T08:29:27;102493.69;;;9.54;100.00
10510;BME280;5303;53.266;10.410;2023-02-11T08:31:52;102502.06;;;9.63;100.00
10510;BME280;5303;53.266;10.410;2023-02-11T08:34:17;102509.84;;;9.56;100.00
10510;BME280;5303;53.266;10.410;2023-02-11T08:36:43;102514.09;;;9.60;100.00
10510;BME280;5303;53.266;10.410;2023-02-11T08:39:14;102506.91;;;9.48;100.00
10510;BME280;5303;53.266;10.410;2023-02-11T08:41:39;102516.81;;;9.60;100.00
10510;BME280;5303;53.266;10.410;2023-02-11T08:44:05;102517.53;;;9.73;100.00
10510;BME280;5303;53.266;10.410;2023-02-11T08:46:30;102531.44;;;9.91;100.00
10510;BME280;5303;53.266;10.410;2023-02-11T08:48:55;102543.72;;;9.74;100.00
10510;BME280;5303;53.266;10.410;2023-02-11T08:51:27;102548.94;;;9.77;100.00
10510;BME280;5303;53.266;10.410;2023-02-11T08:53:53;102559.94;;;9.76;100.00
10510;BME280;5303;53.266;10.410;2023-02-11T08:56:20;102556.59;;;9.84;100.00
10510;BME280;5303;53.266;10.410;2023-02-11T08:58:48;102539.41;;;9.83;100.00
10510;BME280;5303;53.266;10.410;2023-02-11T09:01:22;102533.31;;;10.02;100.00
10510;BME280;5303;53.266;10.410;2023-02-11T09:03:48;102539.41;;;9.83;100.00
10510;BME280;5303;53.266;10.410;2023-02-11T09:06:15;102538.06;;;9.66;100.00
10510;BME280;5303;53.266;10.410;2023-02-11T09:08:44;102552.38;;;9.91;100.00
10510;BME280;5303;53.266;10.410;2023-02-11T09:11:10;102544.44;;;9.99;100.00
10510;BME280;5303;53.266;10.410;2023-02-11T09:13:35;102552.25;;;9.92;100.00
10510;BME280;5303;53.266;10.410;2023-02-11T09:16:02;102557.66;;;10.03;100.00
10510;BME280;5303;53.266;10.410;2023-02-11T09:18:28;102560.31;;;9.83;100.00
10510;BME280;5303;53.266;10.410;2023-02-11T09:21:04;102560.63;;;10.12;100.00
10510;BME280;5303;53.266;10.410;2023-02-11T09:23:30;102559.13;;;10.19;100.00
10510;BME280;5303;53.266;10.410;2023-02-11T09:25:58;102567.28;;;10.08;100.00
10510;BME280;5303;53.266;10.410;2023-02-11T09:28:23;102550.22;;;10.28;100.00
10510;BME280;5303;53.266;10.410;2023-02-11T09:30:49;102553.06;;;10.04;100.00
10510;BME280;5303;53.266;10.410;2023-02-11T09:33:14;102552.47;;;10.00;100.00
10510;BME280;5303;53.266;10.410;2023-02-11T09:35:39;102556.16;;;10.11;100.00
10510;BME280;5303;53.266;10.410;2023-02-11T09:38:04;102552.13;;;9.94;100.00
10510;BME280;5303;53.266;10.410;2023-02-11T09:40:30;102553.59;;;9.98;100.00
10510;BME280;5303;53.266;10.410;2023-02-11T09:43:16;102554.81;;;10.05;100.00
10510;BME280;5303;53.266;10.410;2023-02-11T09:45:43;102562.50;;;10.11;100.00
10510;BME280;5303;53.266;10.410;2023-02-11T09:48:14;102565.69;;;10.16;100.00
10510;BME280;5303;53.266;10.410;2023-02-11T09:50:43;102566.53;;;10.17;100.00
10510;BME280;5303;53.266;10.410;2023-02-11T09:53:43;102577.44;;;10.17;100.00
10510;BME280;5303;53.266;10.410;2023-02-11T09:56:10;102572.28;;;10.02;100.00
10510;BME280;5303;53.266;10.410;2023-02-11T09:58:39;102573.50;;;10.10;100.00
10510;BME280;5303;53.266;10.410;2023-02-11T10:06:50;102563.00;;;10.05;100.00
10510;BME280;5303;53.266;10.410;2023-02-11T10:11:52;102573.88;;;10.05;100.00
10510;BME280;5303;53.266;10.410;2023-02-11T10:20:19;102589.81;;;10.32;100.00
10510;BME280;5303;53.266;10.410;2023-02-11T10:22:53;102591.66;;;10.20;100.00
10510;BME280;5303;53.266;10.410;2023-02-11T10:25:22;102597.34;;;10.17;100.00
10510;BME280;5303;53.266;10.410;2023-02-11T10:27:51;102601.31;;;10.24;100.00
10510;BME280;5303;53.266;10.410;2023-02-11T10:30:32;102597.59;;;10.25;100.00
10510;BME280;5303;53.266;10.410;2023-02-11T10:33:04;102590.31;;;10.15;100.00
10510;BME280;5303;53.266;10.410;2023-02-11T10:35:36;102574.50;;;9.97;100.00
10510;BME280;5303;53.266;10.410;2023-02-11T10:38:02;102577.56;;;10.04;100.00
10510;BME280;5303;53.266;10.410;2023-02-11T10:40:29;102576.34;;;10.31;100.00
10510;BME280;5303;53.266;10.410;2023-02-11T10:42:57;102577.19;;;10.31;100.00
10510;BME280;5303;53.266;10.410;2023-02-11T10:45:42;102584.97;;;10.36;100.00
10510;BME280;5303;53.266;10.410;2023-02-11T10:51:14;102579.31;;;10.28;100.00
10510;BME280;5303;53.266;10.410;2023-02-11T10:53:40;102573.97;;;10.26;100.00
10510;BME280;5303;53.266;10.410;2023-02-11T10:56:06;102593.66;;;10.07;100.00
10510;BME280;5303;53.266;10.410;2023-02-11T10:58:46;102597.09;;;10.20;100.00
10510;BME280;5303;53.266;10.410;2023-02-11T11:01:19;102598.31;;;10.39;100.00
10510;BME280;5303;53.266;10.410;2023-02-11T11:03:50;102608.47;;;10.37;100.00
10510;BME280;5303;53.266;10.410;2023-02-11T11:06:28;102605.41;;;10.19;100.00
10510;BME280;5303;53.266;10.410;2023-02-11T11:08:54;102605.81;;;10.03;100.00
10510;BME280;5303;53.266;10.410;2023-02-11T11:11:22;102599.09;;;10.30;100.00
10510;BME280;5303;53.266;10.410;2023-02-11T11:16:23;102591.66;;;10.32;100.00
10510;BME280;5303;53.266;10.410;2023-02-11T11:19:13;102587.06;;;10.43;100.00
10510;BME280;5303;53.266;10.410;2023-02-11T11:21:50;102592.66;;;10.19;100.00
10510;BME280;5303;53.266;10.410;2023-02-11T11:24:32;102589.13;;;10.51;100.00
10510;BME280;5303;53.266;10.410;2023-02-11T11:27:03;102593.84;;;10.49;100.00
10510;BME280;5303;53.266;10.410;2023-02-11T11:29:33;102599.56;;;10.23;100.00
10510;BME280;5303;53.266;10.410;2023-02-11T11:32:23;102606.59;;;10.48;100.00
10510;BME280;5303;53.266;10.410;2023-02-11T11:34:59;102609.91;;;10.52;100.00
10510;BME280;5303;53.266;10.410;2023-02-11T11:37:28;102620.28;;;10.69;100.00
10510;BME280;5303;53.266;10.410;2023-02-11T11:42:28;102619.38;;;10.37;100.00
10510;BME280;5303;53.266;10.410;2023-02-11T11:45:05;102619.00;;;10.41;100.00
10510;BME280;5303;53.266;10.410;2023-02-11T11:47:51;102622.84;;;10.39;100.00
10510;BME280;5303;53.266;10.410;2023-02-11T11:54:01;102611.84;;;10.29;100.00
10510;BME280;5303;53.266;10.410;2023-02-11T11:58:29;102633.38;;;10.32;100.00
10510;BME280;5303;53.266;10.410;2023-02-11T12:07:36;102617.41;;;10.39;100.00
10510;BME280;5303;53.266;10.410;2023-02-11T12:09:43;102608.00;;;10.32;100.00
10510;BME280;5303;53.266;10.410;2023-02-11T12:12:39;102609.22;;;10.39;100.00
10510;BME280;5303;53.266;10.410;2023-02-11T12:15:22;102618.16;;;10.30;100.00
10510;BME280;5303;53.266;10.410;2023-02-11T12:18:04;102623.00;;;10.26;100.00
10510;BME280;5303;53.266;10.410;2023-02-11T12:20:56;102606.50;;;10.39;100.00
10510;BME280;5303;53.266;10.410;2023-02-11T12:26:24;102612.97;;;10.15;100.00
10510;BME280;5303;53.266;10.410;2023-02-11T12:29:51;102604.16;;;10.23;100.00
10510;BME280;5303;53.266;10.410;2023-02-11T12:32:07;102594.66;;;10.29;100.00
10510;BME280;5303;53.266;10.410;2023-02-11T12:43:36;102616.53;;;10.38;100.00
10510;BME280;5303;53.266;10.410;2023-02-11T12:46:33;102621.13;;;10.38;100.00
10510;BME280;5303;53.266;10.410;2023-02-11T12:52:02;102630.81;;;10.31;100.00
10510;BME280;5303;53.266;10.410;2023-02-11T12:54:55;102621.22;;;10.47;100.00
10510;BME280;5303;53.266;10.410;2023-02-11T12:57:25;102632.13;;;10.36;100.00
10510;BME280;5303;53.266;10.410;2023-02-11T13:00:03;102632.75;;;10.17;100.00
10510;BME280;5303;53.266;10.410;2023-02-11T13:02:53;102628.28;;;10.39;100.00
10510;BME280;5303;53.266;10.410;2023-02-11T13:08:18;102630.50;;;10.45;100.00
10510;BME280;5303;53.266;10.410;2023-02-11T13:10:49;102623.78;;;10.60;100.00
10510;BME280;5303;53.266;10.410;2023-02-11T13:13:27;102631.97;;;10.49;100.00
10510;BME280;5303;53.266;10.410;2023-02-11T13:16:16;102609.31;;;10.48;100.00
10510;BME280;5303;53.266;10.410;2023-02-11T13:18:51;102613.50;;;10.53;100.00
10510;BME280;5303;53.266;10.410;2023-02-11T13:24:24;102620.44;;;10.57;100.00
10510;BME280;5303;53.266;10.410;2023-02-11T13:32:13;102617.41;;;10.39;100.00
10510;BME280;5303;53.266;10.410;2023-02-11T13:37:33;102616.94;;;10.34;100.00
10510;BME280;5303;53.266;10.410;2023-02-11T13:40:19;102613.50;;;10.53;100.00
10510;BME280;5303;53.266;10.410;2023-02-11T13:42:55;102606.34;;;10.52;100.00
10510;BME280;5303;53.266;10.410;2023-02-11T13:45:41;102603.75;;;10.50;100.00
10510;BME280;5303;53.266;10.410;2023-02-11T13:48:17;102620.44;;;10.57;100.00
10510;BME280;5303;53.266;10.410;2023-02-11T13:50:48;102614.75;;;10.60;100.00
10510;BME280;5303;53.266;10.410;2023-02-11T13:53:15;102612.47;;;10.65;100.00
10510;BME280;5303;53.266;10.410;2023-02-11T13:55:45;102640.47;;;10.67;100.00
10510;BME280;5303;53.266;10.410;2023-02-11T14:11:51;102633.47;;;10.85;100.00
10510;BME280;5303;53.266;10.410;2023-02-11T14:14:20;102633.91;;;10.69;100.00
10510;BME280;5303;53.266;10.410;2023-02-11T14:19:38;102641.69;;;10.74;100.00
10510;BME280;5303;53.266;10.410;2023-02-11T14:27:29;102654.72;;;10.70;100.00
10510;BME280;5303;53.266;10.410;2023-02-11T14:32:51;102668.56;;;10.79;100.00
10510;BME280;5303;53.266;10.410;2023-02-11T14:41:25;102679.16;;;10.93;100.00
10510;BME280;5303;53.266;10.410;2023-02-11T14:43:55;102683.16;;;10.89;100.00
10510;BME280;5303;53.266;10.410;2023-02-11T14:46:23;102683.34;;;10.97;100.00
10510;BME280;5303;53.266;10.410;2023-02-11T14:48:52;102690.88;;;10.72;100.00
10510;BME280;5303;53.266;10.410;2023-02-11T14:51:23;102692.38;;;10.98;100.00
10510;BME280;5303;53.266;10.410;2023-02-11T14:53:52;102696.53;;;11.13;100.00